Time;durP1;ratioP1;P1;durP2;ratioP2;P2;SDS_P1;SDS_P2;PMS_P1;PMS_P2;Temp;Humidity;BMP_temperature;BMP_pressure;BME280_temperature;BME280_humidity;BME280_pressure;Samples;Min_cycle;Max_cycle;Signal;HPM_P1;HPM_P2
2024/02/23 00:01:25;;;;;;;1.20;0.50;;;;;;;10.47;100.00;97908.84;6097085;23;20367;-69
2024/02/23 00:03:58;;;;;;;0.90;0.60;;;;;;;10.44;100.00;97901.28;6071712;23;20466;-67
2024/02/23 00:06:28;;;;;;;1.67;0.93;;;;;;;10.43;100.00;97899.66;6098142;23;20376;-66
2024/02/23 00:08:58;;;;;;;0.80;0.60;;;;;;;10.38;100.00;97907.78;6097868;23;20403;-67
2024/02/23 00:11:27;;;;;;;1.07;0.83;;;;;;;10.51;100.00;97906.41;6099365;23;20375;-66
2024/02/23 00:13:57;;;;;;;1.10;0.60;;;;;;;10.57;100.00;97902.59;6100296;23;20743;-68
2024/02/23 00:16:26;;;;;;;1.87;0.60;;;;;;;10.80;100.00;97900.09;6099705;23;20395;-68
2024/02/23 00:18:55;;;;;;;0.80;0.50;;;;;;;10.89;100.00;97906.56;6099618;23;20427;-68
2024/02/23 00:21:25;;;;;;;0.90;0.60;;;;;;;10.92;100.00;97901.69;6100245;23;20498;-67
2024/02/23 00:23:54;;;;;;;2.87;0.77;;;;;;;10.88;100.00;97896.84;6099836;23;20486;-67
2024/02/23 00:26:24;;;;;;;0.80;0.50;;;;;;;10.99;100.00;97888.69;6100783;23;20370;-67
2024/02/23 00:28:53;;;;;;;0.90;0.60;;;;;;;11.01;100.00;97897.31;6098892;23;20693;-67
2024/02/23 00:31:22;;;;;;;0.83;0.50;;;;;;;10.99;100.00;97885.97;6097663;23;20442;-67
2024/02/23 00:33:51;;;;;;;1.30;0.83;;;;;;;10.97;100.00;97885.44;6098407;23;20904;-67
2024/02/23 00:36:20;;;;;;;0.80;0.50;;;;;;;10.90;100.00;97894.66;6097675;23;20398;-67
2024/02/23 00:38:49;;;;;;;1.03;0.67;;;;;;;10.81;100.00;97896.31;6097852;23;20441;-68
2024/02/23 00:41:18;;;;;;;0.80;0.50;;;;;;;10.85;100.00;97889.25;6098035;23;20430;-66
2024/02/23 00:43:49;;;;;;;1.00;0.50;;;;;;;10.81;100.00;97895.50;6097911;23;20713;-67
2024/02/23 00:46:18;;;;;;;0.80;0.60;;;;;;;10.72;100.00;97887.16;6071948;23;20408;-68
2024/02/23 00:48:47;;;;;;;1.00;0.50;;;;;;;10.76;100.00;97899.03;6097433;23;20441;-66
2024/02/23 00:51:16;;;;;;;1.73;1.00;;;;;;;10.72;100.00;97900.69;6097502;23;20447;-67
2024/02/23 00:53:45;;;;;;;1.30;0.97;;;;;;;10.73;100.00;97901.50;6097427;23;20407;-69
2024/02/23 00:56:14;;;;;;;1.10;0.70;;;;;;;10.81;100.00;97896.31;6097658;23;20398;-66
2024/02/23 00:58:43;;;;;;;1.20;0.60;;;;;;;10.76;100.00;97912.56;6097367;23;20427;-68
2024/02/23 01:01:14;;;;;;;1.00;0.60;;;;;;;10.64;100.00;97916.66;6097627;23;20392;-67
2024/02/23 01:03:43;;;;;;;0.90;0.70;;;;;;;10.72;100.00;97935.03;6097304;23;20380;-67
2024/02/23 01:06:12;;;;;;;0.90;0.50;;;;;;;10.66;100.00;97936.09;6097241;23;20391;-67
2024/02/23 01:08:41;;;;;;;0.80;0.50;;;;;;;10.73;100.00;97933.94;6097381;23;20496;-68
2024/02/23 01:11:10;;;;;;;0.90;0.60;;;;;;;10.84;100.00;97927.44;6097284;23;20709;-68
2024/02/23 01:13:39;;;;;;;1.93;0.60;;;;;;;10.85;100.00;97937.13;6097050;23;20362;-66
2024/02/23 01:16:09;;;;;;;1.10;0.67;;;;;;;10.81;100.00;97936.88;6097444;23;20380;-67
2024/02/23 01:18:41;;;;;;;0.80;0.53;;;;;;;10.89;100.00;97946.34;6098122;23;20408;-66
2024/02/23 01:21:10;;;;;;;0.80;0.50;;;;;;;10.94;100.00;97959.81;6100667;23;20403;-67
2024/02/23 01:23:39;;;;;;;0.80;0.50;;;;;;;10.97;100.00;97967.41;6101203;23;20376;-66
2024/02/23 01:26:08;;;;;;;1.30;0.77;;;;;;;10.90;100.00;97967.69;6099941;23;20419;-67
2024/02/23 01:28:36;;;;;;;0.90;0.60;;;;;;;11.00;100.00;97979.56;6100311;23;20447;-66
2024/02/23 01:31:07;;;;;;;2.10;1.10;;;;;;;10.93;100.00;97979.06;6099879;23;20443;-68
2024/02/23 01:33:37;;;;;;;1.20;0.60;;;;;;;11.07;100.00;97975.50;6099103;23;20372;-68
2024/02/23 01:36:09;;;;;;;1.10;0.60;;;;;;;11.07;100.00;97990.91;6098779;23;20459;-68
2024/02/23 01:38:39;;;;;;;1.47;1.03;;;;;;;11.14;100.00;97992.22;6098512;23;20404;-67
2024/02/23 01:41:07;;;;;;;2.47;1.97;;;;;;;11.22;100.00;97999.00;6098556;23;20777;-67
2024/02/23 01:43:36;;;;;;;1.57;1.47;;;;;;;11.13;100.00;98004.16;6098360;23;20398;-67
2024/02/23 01:46:06;;;;;;;1.00;0.60;;;;;;;11.06;100.00;98016.34;6097942;23;20392;-67
2024/02/23 01:48:35;;;;;;;1.00;0.90;;;;;;;11.06;100.00;98008.22;6097189;23;20934;-65
2024/02/23 01:51:04;;;;;;;2.50;1.00;;;;;;;11.14;100.00;98027.41;6097588;23;20406;-67
2024/02/23 01:53:35;;;;;;;1.00;0.63;;;;;;;11.15;100.00;98025.53;6097612;23;20880;-67
2024/02/23 01:56:05;;;;;;;1.20;0.60;;;;;;;11.25;99.79;98049.84;6096846;23;20437;-66
2024/02/23 01:58:36;;;;;;;1.13;0.67;;;;;;;11.33;97.41;98049.28;6071347;23;20438;-66
2024/02/23 02:01:05;;;;;;;1.10;0.80;;;;;;;11.43;96.64;98065.50;6096848;23;20494;-67
2024/02/23 02:03:34;;;;;;;0.97;0.87;;;;;;;11.43;95.31;98068.19;6095983;23;20380;-67
2024/02/23 02:06:03;;;;;;;0.80;0.60;;;;;;;11.30;95.89;98083.13;6096658;23;20398;-67
2024/02/23 02:08:34;;;;;;;0.80;0.50;;;;;;;11.25;95.02;98106.69;6096701;23;20411;-66
2024/02/23 02:11:03;;;;;;;0.90;0.60;;;;;;;11.26;89.02;98109.13;6097118;23;20913;-67
2024/02/23 02:13:32;;;;;;;1.33;1.10;;;;;;;11.24;89.07;98124.81;6096908;23;20404;-67
2024/02/23 02:16:02;;;;;;;0.90;0.60;;;;;;;11.24;88.04;98142.97;6096710;23;20796;-68
2024/02/23 02:18:31;;;;;;;0.80;0.50;;;;;;;11.22;84.27;98137.03;6096955;23;20414;-66
2024/02/23 02:21:04;;;;;;;1.37;0.50;;;;;;;11.23;82.11;98144.84;6096811;23;20415;-67
2024/02/23 02:23:34;;;;;;;1.17;1.07;;;;;;;11.15;81.75;98147.31;6096736;23;20447;-67
2024/02/23 02:26:03;;;;;;;0.80;0.40;;;;;;;11.10;79.83;98158.94;6097178;23;20376;-67
2024/02/23 02:28:33;;;;;;;0.80;0.40;;;;;;;11.01;79.48;98176.00;6070942;23;20538;-66
2024/02/23 02:31:01;;;;;;;1.20;0.80;;;;;;;10.94;76.48;98191.69;6097126;23;20375;-66
2024/02/23 02:33:30;;;;;;;0.80;0.50;;;;;;;10.86;75.22;98211.97;6096724;23;20423;-66
2024/02/23 02:35:59;;;;;;;0.80;0.60;;;;;;;10.83;71.92;98216.03;6097337;23;20780;-65
2024/02/23 02:38:28;;;;;;;0.90;0.50;;;;;;;10.78;70.83;98221.44;6097353;23;20385;-66
2024/02/23 02:41:00;;;;;;;0.80;0.40;;;;;;;10.72;70.16;98225.19;6096963;23;20978;-66
2024/02/23 02:43:29;;;;;;;0.90;0.50;;;;;;;10.63;68.26;98232.22;6097260;23;20782;-67
2024/02/23 02:45:57;;;;;;;0.80;0.50;;;;;;;10.54;68.12;98239.22;6097599;23;20376;-67
2024/02/23 02:48:26;;;;;;;1.07;0.60;;;;;;;10.44;68.26;98248.13;6096827;23;20423;-66
2024/02/23 02:50:55;;;;;;;0.80;0.50;;;;;;;10.36;68.01;98235.09;6097255;23;20368;-66
2024/02/23 02:53:24;;;;;;;0.80;0.40;;;;;;;10.30;67.97;98236.19;6096600;23;20387;-67
2024/02/23 02:55:53;;;;;;;1.00;0.60;;;;;;;10.23;68.26;98256.41;6096624;23;20427;-66
2024/02/23 02:58:23;;;;;;;0.80;0.40;;;;;;;10.26;67.05;98250.47;6096712;23;20408;-66
2024/02/23 03:00:51;;;;;;;1.83;0.60;;;;;;;10.23;67.43;98256.41;6097049;23;20904;-67
2024/02/23 03:03:22;;;;;;;0.90;0.67;;;;;;;10.20;68.30;98275.84;6096709;23;20415;-66
2024/02/23 03:05:51;;;;;;;0.90;0.47;;;;;;;10.14;68.76;98285.78;6097213;23;20886;-67
2024/02/23 03:08:19;;;;;;;2.80;0.50;;;;;;;10.07;68.66;98281.72;6096358;23;20194;-67
2024/02/23 03:10:48;;;;;;;0.90;0.60;;;;;;;10.06;68.57;98298.97;6070953;23;20408;-67
2024/02/23 03:13:17;;;;;;;1.30;0.50;;;;;;;10.01;68.68;98307.88;6096550;23;20947;-66
2024/02/23 03:15:47;;;;;;;1.20;0.53;;;;;;;9.96;68.39;98307.84;6096554;23;20521;-67
2024/02/23 03:18:16;;;;;;;0.80;0.40;;;;;;;9.85;69.18;98311.53;6096441;23;20963;-66
2024/02/23 03:20:45;;;;;;;1.13;0.77;;;;;;;9.86;68.37;98326.69;6096126;23;20434;-68
2024/02/23 03:23:14;;;;;;;0.80;0.50;;;;;;;9.77;69.07;98323.66;6096528;23;20853;-67
2024/02/23 03:25:43;;;;;;;0.80;0.50;;;;;;;9.64;69.85;98334.06;6096672;23;20171;-67
2024/02/23 03:28:12;;;;;;;0.80;0.50;;;;;;;9.59;69.56;98332.94;6096614;23;20896;-67
2024/02/23 03:30:40;;;;;;;0.80;0.40;;;;;;;9.45;69.72;98331.75;6096534;23;20164;-68
2024/02/23 03:33:10;;;;;;;0.80;0.40;;;;;;;9.50;69.44;98347.16;6096108;23;20419;-66
2024/02/23 03:35:39;;;;;;;0.80;0.50;;;;;;;9.47;69.41;98336.91;6096001;23;20231;-66
2024/02/23 03:38:08;;;;;;;0.80;0.40;;;;;;;9.44;69.37;98350.91;6096306;23;20183;-67
2024/02/23 03:40:37;;;;;;;0.80;0.40;;;;;;;9.47;67.71;98351.22;6096002;23;20176;-66
2024/02/23 03:43:06;;;;;;;0.80;0.40;;;;;;;9.49;67.46;98353.63;6096530;23;20617;-66
2024/02/23 03:45:35;;;;;;;0.80;0.60;;;;;;;9.48;67.15;98358.25;6097322;23;20392;-67
2024/02/23 03:48:05;;;;;;;2.55;0.60;;;;;;;9.46;67.04;98360.38;6097911;23;20251;-68
2024/02/23 03:50:35;;;;;;;0.80;0.50;;;;;;;9.44;66.75;98357.09;6098210;23;20562;-67
2024/02/23 03:53:04;;;;;;;0.80;0.50;;;;;;;9.36;67.25;98368.38;6098515;23;20420;-67
2024/02/23 03:55:33;;;;;;;0.90;0.70;;;;;;;9.31;67.38;98372.91;6098430;23;20574;-67
2024/02/23 03:58:02;;;;;;;0.80;0.50;;;;;;;9.42;65.52;98390.84;6098953;23;20194;-67
2024/02/23 04:00:30;;;;;;;0.80;0.50;;;;;;;9.46;65.28;98398.16;6098469;23;20246;-67
2024/02/23 04:02:59;;;;;;;1.23;1.13;;;;;;;9.43;65.59;98403.25;6098482;23;20332;-67
2024/02/23 04:05:28;;;;;;;1.75;0.77;;;;;;;9.37;66.26;98415.88;6098247;23;20167;-67
2024/02/23 04:07:58;;;;;;;0.90;0.60;;;;;;;9.40;66.53;98412.66;6098431;23;20235;-67
2024/02/23 04:10:26;;;;;;;0.80;0.45;;;;;;;9.45;67.18;98417.31;6098096;23;20226;-66
2024/02/23 04:12:55;;;;;;;0.90;0.50;;;;;;;9.49;65.41;98416.53;6098075;23;20159;-65
2024/02/23 04:15:24;;;;;;;0.80;0.50;;;;;;;9.50;65.15;98438.94;6098090;23;20164;-66
2024/02/23 04:17:53;;;;;;;0.80;0.50;;;;;;;9.46;64.83;98429.72;6098180;23;20392;-67
2024/02/23 04:20:22;;;;;;;0.80;0.50;;;;;;;9.32;65.96;98423.94;6098400;23;20429;-67
2024/02/23 04:22:51;;;;;;;0.80;0.50;;;;;;;9.26;65.61;98457.31;6097730;23;20398;-68
2024/02/23 04:25:21;;;;;;;0.80;0.40;;;;;;;9.27;66.22;98460.84;6098322;23;20159;-67
2024/02/23 04:27:50;;;;;;;0.80;0.40;;;;;;;9.30;66.81;98476.50;6097866;23;20184;-67
2024/02/23 04:30:19;;;;;;;0.80;0.40;;;;;;;9.35;66.95;98473.88;6097985;23;20194;-68
2024/02/23 04:32:47;;;;;;;0.80;0.40;;;;;;;9.31;65.45;98464.66;6072481;23;20510;-66
2024/02/23 04:35:17;;;;;;;0.80;0.50;;;;;;;9.33;64.67;98473.31;6098154;23;20814;-67
2024/02/23 04:37:46;;;;;;;1.90;0.50;;;;;;;9.25;64.80;98479.16;6097928;23;20391;-67
2024/02/23 04:40:15;;;;;;;0.80;0.45;;;;;;;9.16;65.29;98501.19;6097841;23;20163;-65
2024/02/23 04:42:47;;;;;;;0.80;0.43;;;;;;;9.12;64.68;98505.47;6097889;23;20215;-67
2024/02/23 04:45:16;;;;;;;0.80;0.40;;;;;;;9.18;64.21;98500.94;6072648;23;20482;-66
2024/02/23 04:47:46;;;;;;;0.80;0.50;;;;;;;9.10;64.94;98522.97;6099638;23;20564;-65
2024/02/23 04:50:15;;;;;;;0.80;0.50;;;;;;;9.04;64.64;98519.38;6099182;23;20172;-67
2024/02/23 04:52:45;;;;;;;0.80;0.43;;;;;;;9.07;64.39;98535.06;6098413;23;20160;-66
2024/02/23 04:55:15;;;;;;;0.80;0.40;;;;;;;9.12;64.72;98540.53;6099663;23;20230;-66
2024/02/23 04:57:43;;;;;;;0.80;0.40;;;;;;;9.07;65.10;98545.03;6099025;23;20154;-66
2024/02/23 05:00:15;;;;;;;1.30;0.50;;;;;;;9.00;65.37;98545.22;6099298;23;20152;-67
2024/02/23 05:02:44;;;;;;;1.20;0.70;;;;;;;9.01;65.69;98563.03;6099069;23;20172;-67
2024/02/23 05:05:13;;;;;;;1.08;0.77;;;;;;;8.94;65.98;98566.97;6098659;23;20152;-65
2024/02/23 05:07:42;;;;;;;0.80;0.40;;;;;;;8.97;66.62;98588.03;6098401;23;20194;-67
2024/02/23 05:10:11;;;;;;;0.80;0.50;;;;;;;9.00;66.28;98585.69;6098346;23;20179;-67
2024/02/23 05:12:40;;;;;;;0.80;0.50;;;;;;;9.02;66.14;98602.44;6072741;23;20175;-68
2024/02/23 05:15:09;;;;;;;0.80;0.40;;;;;;;8.95;65.41;98615.28;6098301;23;20601;-67
2024/02/23 05:17:39;;;;;;;0.80;0.40;;;;;;;8.84;66.45;98615.38;6098112;23;20172;-69
2024/02/23 05:20:10;;;;;;;0.80;0.40;;;;;;;8.69;67.01;98622.16;6098158;23;20202;-68
2024/02/23 05:22:39;;;;;;;0.80;0.40;;;;;;;8.51;65.10;98621.56;6098378;23;20171;-68
2024/02/23 05:25:09;;;;;;;0.80;0.50;;;;;;;8.40;64.83;98627.84;6098626;23;20167;-67
2024/02/23 05:27:38;;;;;;;0.80;0.40;;;;;;;8.28;64.88;98639.44;6098872;23;20160;-68
2024/02/23 05:30:08;;;;;;;0.82;0.50;;;;;;;8.15;64.49;98633.53;6098741;23;20242;-67
2024/02/23 05:32:38;;;;;;;0.80;0.50;;;;;;;8.07;64.83;98634.75;6099109;23;20664;-68
2024/02/23 05:35:08;;;;;;;0.80;0.45;;;;;;;8.01;65.24;98654.56;6099122;23;20514;-67
2024/02/23 05:37:38;;;;;;;0.80;0.50;;;;;;;7.94;66.26;98659.25;6099448;23;20583;-68
2024/02/23 05:40:10;;;;;;;0.80;0.50;;;;;;;7.94;66.50;98659.25;6099390;23;20647;-67
2024/02/23 05:42:39;;;;;;;0.80;0.50;;;;;;;7.82;67.10;98678.16;6099309;23;20175;-67
2024/02/23 05:45:09;;;;;;;1.25;0.50;;;;;;;7.85;67.80;98690.31;6073296;23;20211;-66
2024/02/23 05:47:40;;;;;;;0.80;0.50;;;;;;;7.80;68.75;98709.88;6099538;23;20186;-66
2024/02/23 05:50:14;;;;;;;0.80;0.50;;;;;;;7.72;69.20;98704.88;6099000;23;20251;-69
2024/02/23 05:52:43;;;;;;;0.80;0.50;;;;;;;7.68;69.24;98714.47;6097252;23;20167;-68
2024/02/23 05:55:12;;;;;;;0.80;0.50;;;;;;;7.62;69.86;98725.34;6098244;23;20632;-67
2024/02/23 05:57:42;;;;;;;0.80;0.50;;;;;;;7.50;70.33;98725.38;6098097;23;20171;-68
2024/02/23 06:00:12;;;;;;;0.80;0.50;;;;;;;7.40;70.57;98728.66;6097442;23;20151;-68
2024/02/23 06:02:45;;;;;;;0.80;0.50;;;;;;;7.36;71.02;98722.09;6097568;23;20175;-68
2024/02/23 06:05:14;;;;;;;0.80;0.50;;;;;;;7.37;69.92;98726.41;6097146;23;20207;-68
2024/02/23 06:07:43;;;;;;;0.80;0.50;;;;;;;7.35;69.71;98739.31;6097160;23;20477;-69
2024/02/23 06:10:12;;;;;;;0.80;0.40;;;;;;;7.37;70.14;98739.06;6096970;23;20481;-66
2024/02/23 06:12:41;;;;;;;0.95;0.50;;;;;;;7.40;70.18;98752.06;6097134;23;20156;-67
2024/02/23 06:15:10;;;;;;;0.80;0.50;;;;;;;7.36;70.44;98767.00;6097196;23;20168;-67
2024/02/23 06:17:42;;;;;;;0.80;0.50;;;;;;;7.38;70.43;98772.97;6097193;23;20207;-67
2024/02/23 06:20:14;;;;;;;1.10;0.70;;;;;;;7.38;70.19;98794.50;6096924;23;20151;-68
2024/02/23 06:22:43;;;;;;;1.00;0.60;;;;;;;7.38;70.16;98800.72;6096908;23;20175;-68
2024/02/23 06:25:21;;;;;;;0.80;0.40;;;;;;;7.36;70.42;98810.88;6097463;23;20504;-66
2024/02/23 06:27:49;;;;;;;0.90;0.60;;;;;;;7.35;70.59;98817.31;6097275;23;20226;-67
2024/02/23 06:30:18;;;;;;;0.80;0.50;;;;;;;7.32;70.60;98801.63;6097022;23;20474;-67
2024/02/23 06:32:47;;;;;;;0.80;0.50;;;;;;;7.22;71.58;98814.81;6096916;23;20388;-67
2024/02/23 06:35:18;;;;;;;0.80;0.50;;;;;;;7.23;71.63;98812.97;6097033;23;20152;-67
2024/02/23 06:37:46;;;;;;;0.80;0.50;;;;;;;7.15;72.25;98821.38;6096973;23;20152;-67
2024/02/23 06:40:15;;;;;;;0.80;0.60;;;;;;;7.16;73.16;98828.41;6096943;23;20183;-65
2024/02/23 06:42:44;;;;;;;0.80;0.52;;;;;;;7.21;72.69;98826.63;6096846;23;20179;-67
2024/02/23 06:45:13;;;;;;;0.80;0.50;;;;;;;7.24;72.48;98834.25;6071314;23;20172;-68
2024/02/23 06:47:42;;;;;;;0.80;0.50;;;;;;;7.35;72.21;98846.09;6096815;23;20163;-67
2024/02/23 06:50:11;;;;;;;0.80;0.50;;;;;;;7.47;72.01;98854.19;6096517;23;20501;-67
2024/02/23 06:52:42;;;;;;;1.00;0.60;;;;;;;7.56;71.36;98850.09;6096673;23;20552;-67
2024/02/23 06:55:10;;;;;;;0.80;0.50;;;;;;;7.61;71.09;98842.97;6096574;23;20494;-67
2024/02/23 06:57:39;;;;;;;0.80;0.50;;;;;;;7.81;69.49;98853.41;6096374;23;20174;-67
2024/02/23 07:00:09;;;;;;;0.80;0.50;;;;;;;7.92;69.83;98876.81;6096473;23;20167;-68
2024/02/23 07:02:38;;;;;;;0.80;0.50;;;;;;;8.01;68.33;98883.50;6096193;23;20175;-68
2024/02/23 07:05:08;;;;;;;1.08;0.98;;;;;;;8.06;68.67;98875.53;6096582;23;20158;-67
2024/02/23 07:07:40;;;;;;;0.80;0.50;;;;;;;8.10;68.28;98873.19;6096884;23;20158;-69
2024/02/23 07:10:12;;;;;;;0.90;0.57;;;;;;;8.18;67.87;98881.72;6096857;23;20203;-67
2024/02/23 07:12:41;;;;;;;1.85;0.95;;;;;;;8.21;67.71;98875.88;6096450;23;20494;-67
2024/02/23 07:15:10;;;;;;;1.00;0.50;;;;;;;8.21;67.51;98894.75;6096649;23;20163;-67
2024/02/23 07:17:39;;;;;;;1.33;1.13;;;;;;;8.26;67.65;98894.84;6096445;23;20147;-68
2024/02/23 07:23:49;;;;;;;1.52;0.95;;;;;;;8.22;66.10;98901.78;6096310;23;20176;-66
2024/02/23 07:26:22;;;;;;;1.38;0.70;;;;;;;8.35;66.76;98897.22;6096016;23;20259;-67
2024/02/23 07:28:51;;;;;;;0.80;0.47;;;;;;;8.35;66.07;98903.44;6096218;23;20187;-67
2024/02/23 07:31:20;;;;;;;0.85;0.57;;;;;;;8.28;65.34;98918.84;6096745;23;20155;-67
2024/02/23 07:33:48;;;;;;;0.90;0.70;;;;;;;8.31;66.07;98917.63;6070912;23;20539;-68
2024/02/23 07:36:18;;;;;;;1.40;1.00;;;;;;;8.28;65.47;98922.38;6096194;23;20495;-68
2024/02/23 07:38:47;;;;;;;0.80;0.50;;;;;;;8.32;65.21;98919.25;6096119;23;20183;-69
2024/02/23 07:41:17;;;;;;;1.10;0.60;;;;;;;8.20;65.24;98932.69;6096480;23;20155;-65
2024/02/23 07:43:49;;;;;;;1.00;0.60;;;;;;;8.31;65.11;98923.81;6096128;23;20174;-68
2024/02/23 07:46:19;;;;;;;0.80;0.40;;;;;;;8.31;65.34;98934.59;6095978;23;20211;-68
2024/02/23 07:48:48;;;;;;;0.90;0.60;;;;;;;8.46;64.87;98934.94;6095868;23;20234;-68
2024/02/23 07:51:17;;;;;;;1.42;0.70;;;;;;;8.37;64.99;98938.25;6070485;23;20187;-68
2024/02/23 07:53:46;;;;;;;0.90;0.60;;;;;;;8.45;64.15;98940.56;6096440;23;20608;-68
2024/02/23 07:56:15;;;;;;;1.45;0.70;;;;;;;8.52;64.90;98942.06;6096742;23;20152;-69
2024/02/23 07:58:43;;;;;;;1.65;0.70;;;;;;;8.55;65.50;98948.88;6096572;23;20679;-67
2024/02/23 08:01:14;;;;;;;0.80;0.50;;;;;;;8.60;64.00;98965.16;6096460;23;20155;-67
2024/02/23 08:03:43;;;;;;;0.90;0.60;;;;;;;8.73;64.76;98973.00;6096530;23;20179;-68
2024/02/23 08:06:13;;;;;;;1.00;0.88;;;;;;;8.70;63.81;98968.09;6096935;23;20156;-67
2024/02/23 08:08:42;;;;;;;0.90;0.50;;;;;;;8.82;63.64;98986.94;6096588;23;20192;-68
2024/02/23 08:11:10;;;;;;;0.80;0.50;;;;;;;8.84;64.08;98988.34;6096637;23;20162;-68
2024/02/23 08:13:39;;;;;;;0.80;0.50;;;;;;;9.10;62.49;98982.41;6096299;23;20147;-68
2024/02/23 08:16:09;;;;;;;0.80;0.60;;;;;;;9.21;62.82;98994.25;6096270;23;20544;-69
2024/02/23 08:18:39;;;;;;;0.80;0.50;;;;;;;9.36;62.16;98996.41;6096440;23;20194;-67
2024/02/23 08:21:08;;;;;;;1.25;1.15;;;;;;;9.61;61.44;98999.63;6097511;23;20604;-69
2024/02/23 08:23:37;;;;;;;2.05;1.10;;;;;;;9.52;60.30;98990.25;6097500;23;20210;-69
2024/02/23 08:26:06;;;;;;;0.80;0.50;;;;;;;9.56;60.99;99007.63;6097515;23;20199;-68
2024/02/23 08:28:35;;;;;;;2.05;0.95;;;;;;;9.66;61.28;99013.22;6097638;23;20657;-69
2024/02/23 08:31:04;;;;;;;1.20;0.50;;;;;;;9.50;61.25;99013.97;6097949;23;20162;-67
2024/02/23 08:33:33;;;;;;;1.00;0.70;;;;;;;9.52;61.48;99031.59;6098739;23;20148;-67
2024/02/23 08:36:05;;;;;;;0.80;0.50;;;;;;;9.54;61.87;99020.53;6098713;23;20379;-68
2024/02/23 08:38:34;;;;;;;0.90;0.50;;;;;;;9.60;61.08;99019.56;6098284;23;20419;-68
2024/02/23 08:41:04;;;;;;;0.80;0.50;;;;;;;9.54;61.18;99020.53;6098530;23;20621;-67
2024/02/23 08:43:33;;;;;;;1.03;0.50;;;;;;;9.69;61.81;99011.91;6098251;23;20203;-68
2024/02/23 08:46:01;;;;;;;0.80;0.50;;;;;;;9.56;60.76;99011.13;6098715;23;20417;-67
2024/02/23 08:48:36;;;;;;;1.17;0.70;;;;;;;9.68;59.49;99016.50;6097665;23;20731;-68
2024/02/23 08:51:06;;;;;;;0.80;0.50;;;;;;;9.46;60.72;99012.81;6098408;23;20231;-68
2024/02/23 08:53:35;;;;;;;1.00;0.50;;;;;;;9.63;61.35;99024.50;6098608;23;20148;-68
2024/02/23 08:56:05;;;;;;;0.80;0.50;;;;;;;9.62;60.49;99027.44;6098170;23;20170;-69
2024/02/23 08:58:34;;;;;;;0.80;0.50;;;;;;;9.62;59.57;99039.06;6097415;23;20408;-69
2024/02/23 09:01:04;;;;;;;0.80;0.43;;;;;;;9.47;58.83;99036.88;6098359;23;20773;-68
2024/02/23 09:03:32;;;;;;;1.63;0.80;;;;;;;9.34;58.49;99042.56;6072243;23;20188;-68
2024/02/23 09:06:01;;;;;;;0.80;0.50;;;;;;;9.32;59.67;99043.84;6097995;23;20392;-68
2024/02/23 09:08:32;;;;;;;0.80;0.50;;;;;;;9.34;59.20;99047.97;6097918;23;20555;-67
2024/02/23 09:11:01;;;;;;;0.80;0.50;;;;;;;9.14;59.04;99050.22;6097992;23;20380;-67
2024/02/23 09:13:30;;;;;;;0.80;0.50;;;;;;;9.23;58.71;99050.69;6097676;23;20168;-68
2024/02/23 09:15:59;;;;;;;1.00;0.70;;;;;;;9.28;58.58;99048.09;6097896;23;20176;-67
2024/02/23 09:18:28;;;;;;;1.83;0.67;;;;;;;9.45;58.47;99051.66;6098298;23;20191;-67
2024/02/23 09:20:56;;;;;;;0.80;0.50;;;;;;;9.41;57.62;99064.00;6098165;23;20864;-68
2024/02/23 09:23:25;;;;;;;1.37;0.50;;;;;;;9.60;57.88;99058.19;6097659;23;20415;-68
2024/02/23 09:25:56;;;;;;;2.55;0.60;;;;;;;10.02;56.19;99061.41;6072135;23;20418;-67
2024/02/23 09:28:24;;;;;;;0.80;0.40;;;;;;;10.45;54.81;99068.97;6097909;23;20191;-68
2024/02/23 09:30:53;;;;;;;1.87;0.70;;;;;;;10.54;54.34;99066.69;6098191;23;20207;-68
2024/02/23 09:33:25;;;;;;;0.93;0.50;;;;;;;10.63;53.58;99064.38;6097898;23;20459;-67
2024/02/23 09:35:54;;;;;;;1.00;0.50;;;;;;;10.52;53.01;99074.19;6097462;23;20376;-69
2024/02/23 09:38:24;;;;;;;0.80;0.50;;;;;;;10.47;51.79;99068.72;6097380;23;20408;-69
2024/02/23 09:40:54;;;;;;;0.80;0.50;;;;;;;10.62;52.25;99071.66;6097533;23;20471;-68
2024/02/23 09:43:25;;;;;;;0.93;0.67;;;;;;;10.42;51.08;99076.72;6097313;23;20982;-68
2024/02/23 09:45:54;;;;;;;3.00;0.87;;;;;;;9.88;51.77;99081.69;6097228;23;20478;-68
2024/02/23 09:48:24;;;;;;;0.80;0.40;;;;;;;9.85;52.80;99090.28;6096808;23;20423;-68
2024/02/23 09:50:56;;;;;;;4.20;0.60;;;;;;;10.03;51.81;99095.47;6096879;23;20382;-68
2024/02/23 09:53:25;;;;;;;0.80;0.60;;;;;;;10.12;51.73;99097.81;6097661;23;20856;-69
2024/02/23 09:55:57;;;;;;;0.90;0.60;;;;;;;9.98;51.03;99117.00;6097313;23;20454;-69
2024/02/23 09:58:29;;;;;;;0.80;0.50;;;;;;;10.14;51.38;99122.69;6096680;23;20491;-69
2024/02/23 10:01:00;;;;;;;1.03;0.50;;;;;;;10.19;51.35;99136.34;6097006;23;20369;-68
2024/02/23 10:03:40;;;;;;;0.80;0.40;;;;;;;9.90;51.03;99139.00;6096460;23;20415;-69
2024/02/23 10:06:09;;;;;;;1.00;0.50;;;;;;;10.04;51.17;99134.16;6096601;23;20387;-68
2024/02/23 10:08:37;;;;;;;0.80;0.50;;;;;;;9.96;51.45;99116.44;6096911;23;20415;-67
2024/02/23 10:11:08;;;;;;;0.80;0.50;;;;;;;10.29;52.08;99120.31;6096831;23;20386;-68
2024/02/23 10:13:37;;;;;;;0.90;0.50;;;;;;;10.53;51.89;99111.00;6097089;23;20416;-67
2024/02/23 10:16:07;;;;;;;0.80;0.50;;;;;;;10.51;51.21;99123.94;6096988;23;20398;-68
2024/02/23 10:18:43;;;;;;;0.80;0.50;;;;;;;10.53;51.72;99138.03;6096655;23;20479;-67
2024/02/23 10:21:12;;;;;;;0.80;0.40;;;;;;;10.31;52.14;99146.03;6096643;23;20399;-68
2024/02/23 10:23:41;;;;;;;1.50;0.77;;;;;;;10.51;52.65;99133.94;6096663;23;20420;-67
2024/02/23 10:26:12;;;;;;;0.90;0.60;;;;;;;11.01;52.04;99133.94;6096917;23;20410;-68
2024/02/23 10:28:41;;;;;;;2.60;0.60;;;;;;;10.93;52.39;99132.50;6096497;23;20383;-68
2024/02/23 10:31:10;;;;;;;0.80;0.40;;;;;;;10.95;52.13;99135.75;6096436;23;20376;-68
2024/02/23 10:33:42;;;;;;;0.90;0.50;;;;;;;10.86;51.74;99116.41;6096425;23;20372;-68
2024/02/23 10:36:15;;;;;;;0.90;0.67;;;;;;;11.04;51.62;99122.63;6096447;23;20889;-67
2024/02/23 10:38:47;;;;;;;1.77;0.60;;;;;;;11.12;51.29;99120.34;6096812;23;20476;-67
2024/02/23 10:41:18;;;;;;;0.80;0.50;;;;;;;11.02;51.99;99130.19;6096892;23;20470;-67
2024/02/23 10:43:50;;;;;;;0.80;0.50;;;;;;;10.63;52.71;99118.47;6096994;23;20979;-69
2024/02/23 10:46:20;;;;;;;0.90;0.50;;;;;;;10.61;52.55;99132.22;6097755;23;20725;-67
2024/02/23 10:48:50;;;;;;;0.80;0.40;;;;;;;10.71;51.29;99134.28;6098001;23;20423;-69
2024/02/23 10:51:19;;;;;;;0.80;0.50;;;;;;;10.64;51.03;99131.75;6098289;23;20376;-68
2024/02/23 10:53:50;;;;;;;0.80;0.50;;;;;;;10.98;49.33;99143.41;6098079;23;20384;-67
2024/02/23 10:56:22;;;;;;;0.80;0.40;;;;;;;10.79;49.10;99153.66;6098567;23;20377;-68
2024/02/23 10:58:51;;;;;;;0.90;0.50;;;;;;;10.77;49.47;99142.25;6098390;23;20378;-68
2024/02/23 11:01:22;;;;;;;0.90;0.50;;;;;;;10.76;50.34;99143.31;6073608;23;20939;-69
2024/02/23 11:03:53;;;;;;;4.30;0.50;;;;;;;11.10;49.11;99143.28;6097673;23;20407;-69
2024/02/23 11:06:27;;;;;;;0.80;0.50;;;;;;;10.96;48.14;99142.00;6098399;23;20484;-69
2024/02/23 11:09:08;;;;;;;1.30;0.90;;;;;;;10.88;48.21;99140.53;6097596;23;20407;-67
2024/02/23 11:11:38;;;;;;;0.80;0.47;;;;;;;10.56;49.47;99142.97;6098465;23;20383;-68
2024/02/23 11:14:10;;;;;;;0.80;0.40;;;;;;;11.08;49.63;99145.44;6098410;23;20404;-68
2024/02/23 11:16:42;;;;;;;0.80;0.50;;;;;;;11.38;49.13;99140.44;6098081;23;20376;-68
2024/02/23 11:19:11;;;;;;;1.20;0.60;;;;;;;11.59;48.55;99141.56;6100412;23;20494;-67
2024/02/23 11:21:40;;;;;;;0.80;0.47;;;;;;;11.50;48.06;99138.47;6100486;23;20377;-69
2024/02/23 11:24:16;;;;;;;0.80;0.50;;;;;;;11.48;48.82;99137.06;6098681;23;20405;-68
2024/02/23 11:26:50;;;;;;;0.80;0.50;;;;;;;11.44;49.16;99153.00;6096411;23;20417;-67
2024/02/23 11:29:20;;;;;;;0.80;0.50;;;;;;;11.57;48.95;99152.63;6096557;23;20411;-67
2024/02/23 11:31:49;;;;;;;0.83;0.50;;;;;;;11.23;47.59;99165.41;6096537;23;20493;-68
2024/02/23 11:34:24;;;;;;;1.20;0.50;;;;;;;10.75;47.97;99163.28;6096559;23;20375;-67
2024/02/23 11:36:53;;;;;;;0.90;0.57;;;;;;;11.07;48.01;99163.56;6096131;23;20382;-69
2024/02/23 11:39:23;;;;;;;0.90;0.50;;;;;;;11.48;48.36;99164.13;6096729;23;20423;-68
2024/02/23 11:41:53;;;;;;;2.23;0.93;;;;;;;11.65;48.07;99152.22;6096143;23;20398;-69
2024/02/23 11:44:22;;;;;;;1.20;0.87;;;;;;;11.31;47.68;99151.47;6096226;23;20808;-69
2024/02/23 11:46:51;;;;;;;0.80;0.40;;;;;;;11.17;47.15;99152.06;6095915;23;20351;-66
2024/02/23 11:49:19;;;;;;;3.03;0.60;;;;;;;10.85;47.65;99149.94;6096476;23;20470;-66
2024/02/23 11:51:48;;;;;;;1.00;0.90;;;;;;;10.78;47.93;99160.13;6096855;23;20455;-67